CheckWX is a tool to help pilots better visualize weather data.  It is not intended as a substitute for an official pre-flight weather briefing.

10:06:32 UTC

KLWB TAF
Greenbrier Valley Airport
Lewisburg, West Virginia, USA
KLWB 260924Z 2609/2706 00000KT 1SM BR OVC001 TEMPO 2609/2612 1/4SM FG VV001 FM261230 00000KT 3SM BR SCT025 FM261300 30004KT P6SM SCT250 FM261600 30008KT P6SM FEW040 BKN250 FM270000 VRB03KT P6SM SCT250

Jun-26@
09:00 UTC

Jun-26 @ 09:00 UTC

Jun-26@
12:30 UTC

Jun-26 @ 12:30 UTC

KLWB 260924Z 2609/2706 00000KT 1SM BR OVC001
Conditions
Mist
Cloud Levels
  • Overcast at 100' AGL

Jun-26@
09:00 UTC

Jun-26 @ 09:00 UTC

Jun-26@
12:00 UTC

Jun-26 @ 12:00 UTC

TEMPO 2609/2612 1/4SM FG VV001

Temporary

Temporary Changes expected for less than half the time period

Conditions
Fog
Cloud Levels
  • Vertical visibility at 100' AGL

Jun-26@
12:30 UTC

Jun-26 @ 12:30 UTC

Jun-26@
13:00 UTC

Jun-26 @ 13:00 UTC

FM261230 00000KT 3SM BR SCT025

From

From Standard forecast or significant change

Conditions
Mist
Cloud Levels
  • Scattered at 2,500' AGL

Jun-26@
13:00 UTC

Jun-26 @ 13:00 UTC

Jun-26@
16:00 UTC

Jun-26 @ 16:00 UTC

FM261300 30004KT P6SM SCT250

From

From Standard forecast or significant change

Wind
  • 300° at 4 KTS
Cloud Levels
  • Scattered at 25,000' AGL

Jun-26@
16:00 UTC

Jun-26 @ 16:00 UTC

Jun-27@
00:00 UTC

Jun-27 @ 00:00 UTC

FM261600 30008KT P6SM FEW040 BKN250

From

From Standard forecast or significant change

Wind
  • 300° at 8 KTS
Cloud Levels
  • Few at 4,000' AGL
  • Broken at 25,000' AGL

Jun-27@
00:00 UTC

Jun-27 @ 00:00 UTC

Jun-27@
06:00 UTC

Jun-27 @ 06:00 UTC

FM270000 VRB03KT P6SM SCT250

From

From Standard forecast or significant change

Wind
  • Variable at 3 KTS
Cloud Levels
  • Scattered at 25,000' AGL